Time;durP1;ratioP1;P1;durP2;ratioP2;P2;SDS_P1;SDS_P2;PMS_P1;PMS_P2;Temp;Humidity;BMP_temperature;BMP_pressure;BME280_temperature;BME280_humidity;BME280_pressure;Samples;Min_cycle;Max_cycle;Signal;HPM_P1;HPM_P2
2024/03/01 00:00:00;;;;;;;87.53;19.98;;;;;;;;;;4992578;28;20207;-70
2024/03/01 00:02:27;;;;;;;85.05;19.83;;;;;;;;;;5007473;28;20213;-70
2024/03/01 00:04:54;;;;;;;85.13;20.57;;;;;;;;;;5011611;28;20835;-70
2024/03/01 00:07:21;;;;;;;85.18;21.08;;;;;;;;;;4997255;28;20502;-69
2024/03/01 00:09:49;;;;;;;85.73;20.40;;;;;;;;;;4991850;28;20217;-70
2024/03/01 00:12:16;;;;;;;85.70;20.45;;;;;;;;;;4997834;28;20485;-69
2024/03/01 00:14:43;;;;;;;81.28;19.70;;;;;;;;;;4994202;28;20301;-69
2024/03/01 00:17:11;;;;;;;88.75;21.33;;;;;;;;;;4996905;28;20576;-69
2024/03/01 00:19:38;;;;;;;84.28;21.20;;;;;;;;;;5011482;28;20215;-70
2024/03/01 00:22:06;;;;;;;89.00;20.98;;;;;;;;;;5011603;28;20210;-69
2024/03/01 00:24:33;;;;;;;87.50;21.33;;;;;;;;;;5006683;28;20207;-70
2024/03/01 00:27:00;;;;;;;85.78;21.30;;;;;;;;;;4995976;28;20226;-70
2024/03/01 00:29:27;;;;;;;85.85;21.33;;;;;;;;;;4996013;28;20210;-70
2024/03/01 00:31:54;;;;;;;84.50;20.55;;;;;;;;;;4996032;28;20230;-70
2024/03/01 00:34:22;;;;;;;86.18;20.08;;;;;;;;;;4995859;28;20211;-69
2024/03/01 00:36:49;;;;;;;87.75;20.58;;;;;;;;;;4995631;28;20242;-69
2024/03/01 00:39:16;;;;;;;81.90;20.55;;;;;;;;;;4995729;28;20253;-69
2024/03/01 00:41:43;;;;;;;83.43;20.48;;;;;;;;;;5011864;28;20211;-69
2024/03/01 00:44:11;;;;;;;88.28;21.25;;;;;;;;;;4995642;28;20213;-70
2024/03/01 00:46:38;;;;;;;91.53;23.50;;;;;;;;;;4995642;28;20755;-70
2024/03/01 00:49:05;;;;;;;84.72;19.58;;;;;;;;;;4995530;28;20451;-69
2024/03/01 00:51:34;;;;;;;90.63;23.10;;;;;;;;;;4995223;28;20224;-70
2024/03/01 00:54:02;;;;;;;87.47;20.90;;;;;;;;;;4995356;28;20486;-70
2024/03/01 00:56:29;;;;;;;81.27;19.50;;;;;;;;;;5010630;28;20465;-70
2024/03/01 00:58:56;;;;;;;86.70;21.70;;;;;;;;;;5014827;28;20446;-70
2024/03/01 01:01:23;;;;;;;87.70;20.30;;;;;;;;;;5014935;28;20450;-70
2024/03/01 01:03:50;;;;;;;85.38;21.27;;;;;;;;;;5005204;28;20444;-70
2024/03/01 01:06:17;;;;;;;84.75;20.35;;;;;;;;;;4995031;28;20732;-70
2024/03/01 01:08:45;;;;;;;89.40;22.27;;;;;;;;;;4995211;28;20234;-70
2024/03/01 01:11:12;;;;;;;90.43;21.92;;;;;;;;;;4995270;28;20454;-69
2024/03/01 01:13:40;;;;;;;84.90;20.77;;;;;;;;;;4995233;28;20218;-70
2024/03/01 01:16:07;;;;;;;85.75;21.95;;;;;;;;;;5003094;28;20573;-70
2024/03/01 01:18:34;;;;;;;86.55;21.90;;;;;;;;;;4994821;28;20212;-70
2024/03/01 01:21:01;;;;;;;89.90;21.48;;;;;;;;;;5006136;28;20575;-70
2024/03/01 01:23:28;;;;;;;86.68;21.25;;;;;;;;;;4999804;28;20744;-69
2024/03/01 01:25:57;;;;;;;90.07;21.73;;;;;;;;;;4997453;28;20340;-70
2024/03/01 01:28:24;;;;;;;88.88;22.70;;;;;;;;;;5014645;28;20206;-70
2024/03/01 01:30:51;;;;;;;82.28;19.63;;;;;;;;;;5014264;28;20754;-70
2024/03/01 01:33:18;;;;;;;88.25;22.70;;;;;;;;;;5000843;28;20234;-70
2024/03/01 01:35:45;;;;;;;84.28;21.65;;;;;;;;;;4992968;28;20266;-71
2024/03/01 01:38:13;;;;;;;88.00;22.13;;;;;;;;;;4999182;28;20298;-71
2024/03/01 01:40:40;;;;;;;88.78;21.40;;;;;;;;;;5006132;28;20302;-70
2024/03/01 01:43:09;;;;;;;89.13;22.50;;;;;;;;;;4994700;28;20208;-70
2024/03/01 01:45:36;;;;;;;88.53;23.08;;;;;;;;;;4994213;28;20736;-70
2024/03/01 01:48:04;;;;;;;89.20;23.60;;;;;;;;;;4994749;28;20214;-70
2024/03/01 01:50:32;;;;;;;88.30;22.33;;;;;;;;;;4994398;28;20634;-70
2024/03/01 01:53:00;;;;;;;88.00;21.35;;;;;;;;;;4994407;28;20380;-70
2024/03/01 01:55:27;;;;;;;87.65;22.63;;;;;;;;;;4994335;28;20325;-70
2024/03/01 01:57:54;;;;;;;88.93;22.05;;;;;;;;;;4994446;28;20208;-70
2024/03/01 02:00:23;;;;;;;87.63;23.38;;;;;;;;;;4999785;28;20310;-70
2024/03/01 02:02:50;;;;;;;84.40;20.83;;;;;;;;;;5013990;28;20238;-70
2024/03/01 02:05:18;;;;;;;86.13;21.63;;;;;;;;;;5013501;28;20213;-70
2024/03/01 02:07:45;;;;;;;87.38;21.42;;;;;;;;;;4996969;28;20294;-70
2024/03/01 02:10:16;;;;;;;92.65;22.77;;;;;;;;;;4994018;28;20302;-70
2024/03/01 02:12:53;;;;;;;91.88;24.40;;;;;;;;;;4994026;28;20660;-70
2024/03/01 02:15:20;;;;;;;90.03;22.75;;;;;;;;;;4994056;28;20295;-70
2024/03/01 02:17:50;;;;;;;88.20;23.42;;;;;;;;;;4994355;28;20648;-70
2024/03/01 02:20:17;;;;;;;89.75;24.45;;;;;;;;;;4993439;28;20595;-70
2024/03/01 02:22:50;;;;;;;91.43;23.65;;;;;;;;;;4993898;28;20204;-70
2024/03/01 02:25:19;;;;;;;90.85;21.30;;;;;;;;;;4994038;28;20230;-69
2024/03/01 02:27:46;;;;;;;88.65;24.17;;;;;;;;;;4993993;28;20212;-70
2024/03/01 02:30:13;;;;;;;88.07;22.38;;;;;;;;;;5006211;28;20202;-70
2024/03/01 02:32:40;;;;;;;87.90;21.50;;;;;;;;;;5013117;28;20225;-70
2024/03/01 02:35:08;;;;;;;84.05;21.20;;;;;;;;;;4996942;28;20655;-70
2024/03/01 02:37:35;;;;;;;88.07;21.50;;;;;;;;;;5012941;28;20235;-70
2024/03/01 02:40:04;;;;;;;89.93;20.98;;;;;;;;;;4994360;28;20212;-69
2024/03/01 02:42:33;;;;;;;96.38;23.90;;;;;;;;;;4993966;28;20628;-70
2024/03/01 02:45:00;;;;;;;90.68;22.50;;;;;;;;;;4993092;28;20203;-70
2024/03/01 02:47:27;;;;;;;88.05;22.45;;;;;;;;;;4993416;28;20242;-70
2024/03/01 02:49:54;;;;;;;91.55;21.98;;;;;;;;;;5003368;28;20615;-70
2024/03/01 02:52:21;;;;;;;89.85;22.58;;;;;;;;;;5013190;28;20314;-71
2024/03/01 02:54:48;;;;;;;97.85;24.73;;;;;;;;;;5012659;28;20207;-69
2024/03/01 02:57:15;;;;;;;90.85;23.63;;;;;;;;;;5000315;28;20228;-70
2024/03/01 02:59:44;;;;;;;86.85;22.15;;;;;;;;;;4993153;28;20656;-70
2024/03/01 03:02:11;;;;;;;87.43;20.20;;;;;;;;;;4985685;28;20224;-71
2024/03/01 03:04:38;;;;;;;94.93;24.60;;;;;;;;;;4993130;28;20209;-71
2024/03/01 03:07:05;;;;;;;89.15;23.48;;;;;;;;;;4993077;28;20228;-71
2024/03/01 03:09:32;;;;;;;91.78;24.92;;;;;;;;;;4992863;28;20207;-71
2024/03/01 03:11:59;;;;;;;87.10;22.70;;;;;;;;;;4992640;28;20702;-69
2024/03/01 03:14:26;;;;;;;92.97;23.67;;;;;;;;;;4992545;28;20579;-70
2024/03/01 03:16:55;;;;;;;94.90;22.60;;;;;;;;;;4992909;28;20570;-70
2024/03/01 03:19:23;;;;;;;89.55;24.58;;;;;;;;;;5006297;28;20219;-70
2024/03/01 03:21:50;;;;;;;89.97;21.67;;;;;;;;;;5011548;28;20254;-69
2024/03/01 03:24:17;;;;;;;87.85;24.70;;;;;;;;;;4992914;28;20207;-69
2024/03/01 03:26:44;;;;;;;93.53;23.60;;;;;;;;;;4992557;28;20648;-69
2024/03/01 03:29:11;;;;;;;92.60;22.42;;;;;;;;;;5000622;28;20576;-70
2024/03/01 03:31:41;;;;;;;88.55;22.05;;;;;;;;;;5008309;28;20222;-70
2024/03/01 03:34:09;;;;;;;92.03;22.05;;;;;;;;;;5003821;28;20223;-70
2024/03/01 03:36:36;;;;;;;90.53;21.80;;;;;;;;;;4997013;28;20231;-70
2024/03/01 03:39:06;;;;;;;86.57;22.85;;;;;;;;;;4992545;28;20212;-70
2024/03/01 03:41:33;;;;;;;94.68;24.00;;;;;;;;;;5001319;28;20204;-70
2024/03/01 03:44:00;;;;;;;92.53;22.52;;;;;;;;;;4994561;28;20209;-70
2024/03/01 03:46:27;;;;;;;92.50;23.35;;;;;;;;;;5011939;28;20237;-70
2024/03/01 03:48:55;;;;;;;93.97;24.52;;;;;;;;;;5010675;28;20307;-69
2024/03/01 03:51:27;;;;;;;91.93;24.58;;;;;;;;;;4997480;28;20295;-70
2024/03/01 03:53:54;;;;;;;87.45;22.95;;;;;;;;;;5003000;28;20322;-70
2024/03/01 03:56:21;;;;;;;87.47;20.83;;;;;;;;;;4992448;28;20235;-71
2024/03/01 03:58:48;;;;;;;87.50;20.65;;;;;;;;;;4991385;28;20210;-70
2024/03/01 04:01:16;;;;;;;90.43;22.57;;;;;;;;;;4992263;28;20224;-70
2024/03/01 04:03:43;;;;;;;91.63;23.77;;;;;;;;;;4992288;28;20935;-70
2024/03/01 04:06:10;;;;;;;91.43;23.27;;;;;;;;;;4991957;28;20468;-70
2024/03/01 04:08:39;;;;;;;85.82;22.48;;;;;;;;;;4992094;28;20822;-70
2024/03/01 04:11:06;;;;;;;94.72;22.98;;;;;;;;;;5011332;28;20342;-70
2024/03/01 04:13:33;;;;;;;84.55;21.50;;;;;;;;;;5011811;28;20584;-70
2024/03/01 04:16:00;;;;;;;92.70;23.50;;;;;;;;;;5011541;28;20223;-70
2024/03/01 04:18:29;;;;;;;84.70;22.70;;;;;;;;;;5011630;28;20461;-71
2024/03/01 04:20:56;;;;;;;89.43;22.02;;;;;;;;;;5002131;28;20211;-71
2024/03/01 04:23:23;;;;;;;83.07;21.10;;;;;;;;;;4992324;28;20204;-70
2024/03/01 04:25:52;;;;;;;91.77;24.10;;;;;;;;;;4991958;28;20502;-69
2024/03/01 04:28:20;;;;;;;88.97;22.63;;;;;;;;;;4992141;28;20455;-70
2024/03/01 04:30:47;;;;;;;91.77;22.83;;;;;;;;;;5008439;28;20468;-70
2024/03/01 04:33:14;;;;;;;91.20;22.67;;;;;;;;;;5008105;28;20496;-71
2024/03/01 04:35:42;;;;;;;93.03;23.57;;;;;;;;;;4991796;28;20561;-70
2024/03/01 04:38:09;;;;;;;95.88;22.42;;;;;;;;;;4991822;28;20959;-70
2024/03/01 04:40:37;;;;;;;87.90;21.33;;;;;;;;;;4999970;28;20862;-70
2024/03/01 04:43:06;;;;;;;83.80;22.60;;;;;;;;;;4992244;28;20920;-70
2024/03/01 04:45:33;;;;;;;94.80;22.40;;;;;;;;;;4991695;28;20535;-70
2024/03/01 04:48:00;;;;;;;91.17;22.57;;;;;;;;;;4991946;28;20453;-71
2024/03/01 04:50:27;;;;;;;90.80;22.43;;;;;;;;;;4991823;28;20892;-69
2024/03/01 04:52:54;;;;;;;86.95;20.88;;;;;;;;;;4992097;28;20487;-69
2024/03/01 04:55:21;;;;;;;87.47;22.20;;;;;;;;;;4991720;28;20208;-69
2024/03/01 05:00:53;;;;;;;85.30;22.42;;;;;;;;;;5011317;28;20194;-70
2024/03/01 05:03:20;;;;;;;92.80;22.20;;;;;;;;;;5011633;28;20290;-70
2024/03/01 05:05:48;;;;;;;87.00;22.60;;;;;;;;;;5011115;28;20224;-70
2024/03/01 05:08:15;;;;;;;92.55;24.17;;;;;;;;;;4999827;28;20459;-70
2024/03/01 05:10:45;;;;;;;91.70;24.67;;;;;;;;;;4994390;28;20298;-70
2024/03/01 05:13:11;;;;;;;88.50;23.30;;;;;;;;;;5003361;28;20222;-70
2024/03/01 05:15:38;;;;;;;91.30;22.45;;;;;;;;;;4995063;28;20214;-69
2024/03/01 05:18:07;;;;;;;87.25;22.38;;;;;;;;;;4995190;28;20254;-69
2024/03/01 05:20:34;;;;;;;87.20;23.20;;;;;;;;;;4995249;28;20267;-70
2024/03/01 05:23:01;;;;;;;91.05;21.73;;;;;;;;;;4995159;28;20212;-69
2024/03/01 05:25:28;;;;;;;86.03;20.48;;;;;;;;;;4995191;28;20215;-69
2024/03/01 05:27:55;;;;;;;89.60;21.73;;;;;;;;;;4994806;28;20287;-70
2024/03/01 05:30:23;;;;;;;88.03;21.65;;;;;;;;;;4995311;28;20603;-70
2024/03/01 05:32:51;;;;;;;87.35;22.13;;;;;;;;;;5011304;28;20603;-70
2024/03/01 05:35:20;;;;;;;87.85;23.10;;;;;;;;;;5014271;28;20210;-70
2024/03/01 05:37:47;;;;;;;90.70;23.70;;;;;;;;;;5014215;28;20218;-70
2024/03/01 05:40:15;;;;;;;92.20;23.55;;;;;;;;;;5010905;28;20211;-70
2024/03/01 05:42:42;;;;;;;85.82;22.20;;;;;;;;;;4995023;28;20198;-70
2024/03/01 05:45:10;;;;;;;92.28;24.38;;;;;;;;;;4994578;28;20221;-70
2024/03/01 05:47:37;;;;;;;92.03;23.17;;;;;;;;;;4994681;28;20230;-70
2024/03/01 05:50:05;;;;;;;88.75;22.05;;;;;;;;;;5002543;28;20219;-70
2024/03/01 05:52:33;;;;;;;104.32;26.50;;;;;;;;;;4994435;28;20214;-70
2024/03/01 05:55:01;;;;;;;97.70;24.17;;;;;;;;;;5011772;28;20217;-70
2024/03/01 05:57:29;;;;;;;92.65;25.48;;;;;;;;;;5014144;28;20475;-70
2024/03/01 05:59:56;;;;;;;90.80;22.98;;;;;;;;;;5013384;28;20262;-69
2024/03/01 06:02:23;;;;;;;93.93;24.48;;;;;;;;;;4994528;28;20204;-70
2024/03/01 06:04:50;;;;;;;96.07;24.50;;;;;;;;;;5002242;28;20210;-69
2024/03/01 06:07:17;;;;;;;93.88;26.35;;;;;;;;;;5013656;28;20226;-70
2024/03/01 06:09:46;;;;;;;95.27;25.90;;;;;;;;;;5007141;28;20224;-70
2024/03/01 06:12:13;;;;;;;86.10;22.65;;;;;;;;;;4994188;28;20865;-70
2024/03/01 06:14:40;;;;;;;93.63;24.30;;;;;;;;;;4994177;28;20310;-70
2024/03/01 06:17:07;;;;;;;95.38;26.33;;;;;;;;;;5010151;28;20223;-69
2024/03/01 06:19:34;;;;;;;87.70;22.63;;;;;;;;;;4994024;28;20212;-70
2024/03/01 06:22:01;;;;;;;93.63;25.85;;;;;;;;;;4993254;28;20218;-70
2024/03/01 06:24:28;;;;;;;93.20;24.27;;;;;;;;;;4993903;28;20291;-70
2024/03/01 06:26:57;;;;;;;91.03;24.60;;;;;;;;;;4994295;28;20224;-71
2024/03/01 06:29:24;;;;;;;93.18;25.13;;;;;;;;;;5009417;28;20204;-70
2024/03/01 06:31:51;;;;;;;96.15;25.20;;;;;;;;;;4993953;28;20210;-71
2024/03/01 06:34:18;;;;;;;87.80;24.23;;;;;;;;;;4985597;28;20223;-71
2024/03/01 06:36:45;;;;;;;93.20;24.73;;;;;;;;;;4993799;28;20484;-71
2024/03/01 06:39:14;;;;;;;93.75;24.83;;;;;;;;;;5012669;28;20444;-70
2024/03/01 06:41:41;;;;;;;97.03;24.38;;;;;;;;;;5013112;28;20203;-70
2024/03/01 06:44:09;;;;;;;102.30;25.73;;;;;;;;;;4996603;28;20845;-70
2024/03/01 06:46:36;;;;;;;92.68;25.13;;;;;;;;;;5012678;28;20466;-70
2024/03/01 06:49:03;;;;;;;88.57;23.40;;;;;;;;;;5003358;28;20212;-70
2024/03/01 06:51:31;;;;;;;93.60;26.40;;;;;;;;;;4993103;28;21068;-70
2024/03/01 06:53:58;;;;;;;99.40;23.93;;;;;;;;;;5001188;28;20490;-70
2024/03/01 06:56:25;;;;;;;99.07;25.47;;;;;;;;;;5001391;28;20477;-70
2024/03/01 06:58:52;;;;;;;95.20;23.77;;;;;;;;;;4992990;28;20446;-70
2024/03/01 07:01:20;;;;;;;90.90;24.17;;;;;;;;;;4996831;28;20560;-70
2024/03/01 07:03:48;;;;;;;92.07;24.73;;;;;;;;;;5012562;28;20790;-70
2024/03/01 07:06:15;;;;;;;90.30;24.17;;;;;;;;;;5001815;28;20816;-70
2024/03/01 07:08:43;;;;;;;90.87;24.30;;;;;;;;;;4999408;28;20476;-70
2024/03/01 07:11:10;;;;;;;95.37;25.23;;;;;;;;;;5010541;28;20460;-70
2024/03/01 07:13:37;;;;;;;95.93;25.50;;;;;;;;;;4993039;28;21004;-71
2024/03/01 07:16:04;;;;;;;93.73;23.87;;;;;;;;;;5010245;28;20854;-70
2024/03/01 07:18:33;;;;;;;91.17;24.90;;;;;;;;;;5012728;28;20824;-70
2024/03/01 07:21:00;;;;;;;90.23;24.63;;;;;;;;;;5003862;28;20458;-70
2024/03/01 07:23:27;;;;;;;92.27;25.60;;;;;;;;;;4992980;28;20444;-70
2024/03/01 07:25:54;;;;;;;92.50;24.07;;;;;;;;;;4992811;28;20472;-71
2024/03/01 07:28:21;;;;;;;89.87;24.10;;;;;;;;;;4992825;28;20455;-71
2024/03/01 07:30:48;;;;;;;92.47;24.80;;;;;;;;;;4992931;28;20455;-71
2024/03/01 07:33:15;;;;;;;92.03;24.60;;;;;;;;;;5002515;28;20447;-70
2024/03/01 07:35:43;;;;;;;93.00;24.83;;;;;;;;;;4997937;28;20470;-70
2024/03/01 07:38:11;;;;;;;95.00;24.87;;;;;;;;;;5002705;28;20454;-69
2024/03/01 07:40:38;;;;;;;90.27;22.80;;;;;;;;;;5012608;28;20446;-71
2024/03/01 07:43:05;;;;;;;92.00;25.10;;;;;;;;;;4994855;28;20507;-70
2024/03/01 07:45:33;;;;;;;91.33;22.37;;;;;;;;;;4992465;28;20542;-72
2024/03/01 07:48:00;;;;;;;89.30;24.00;;;;;;;;;;5001397;28;20478;-71
2024/03/01 07:50:27;;;;;;;90.23;23.10;;;;;;;;;;5008167;28;20452;-72
2024/03/01 07:52:56;;;;;;;93.40;24.83;;;;;;;;;;5000355;28;20856;-71
2024/03/01 07:55:23;;;;;;;89.70;22.97;;;;;;;;;;4995937;28;20486;-70
2024/03/01 07:57:50;;;;;;;88.30;23.63;;;;;;;;;;4996804;28;20454;-70
2024/03/01 08:00:17;;;;;;;93.83;26.17;;;;;;;;;;5011596;28;20454;-70
2024/03/01 08:02:44;;;;;;;92.40;23.90;;;;;;;;;;5012023;28;20447;-70
2024/03/01 08:05:11;;;;;;;89.87;22.47;;;;;;;;;;5001786;28;20448;-70
2024/03/01 08:07:38;;;;;;;87.83;22.77;;;;;;;;;;4997860;28;20482;-70
2024/03/01 08:10:08;;;;;;;83.47;21.67;;;;;;;;;;5011722;28;20447;-70
2024/03/01 08:12:35;;;;;;;86.40;23.77;;;;;;;;;;5011821;28;20685;-70
2024/03/01 08:15:08;;;;;;;90.20;25.23;;;;;;;;;;5011715;28;20827;-70
2024/03/01 08:17:35;;;;;;;90.37;22.77;;;;;;;;;;5007038;28;20551;-70
2024/03/01 08:20:04;;;;;;;88.37;24.80;;;;;;;;;;4992593;28;20455;-71
2024/03/01 08:22:31;;;;;;;89.87;25.07;;;;;;;;;;4992097;28;20481;-71
2024/03/01 08:24:59;;;;;;;100.93;26.00;;;;;;;;;;4999996;28;20680;-71
2024/03/01 08:27:28;;;;;;;90.30;24.17;;;;;;;;;;5011864;28;20479;-71
2024/03/01 08:29:57;;;;;;;90.30;23.07;;;;;;;;;;5004398;28;20455;-71
2024/03/01 08:32:29;;;;;;;88.03;24.00;;;;;;;;;;4995607;28;20830;-71
2024/03/01 08:34:57;;;;;;;87.97;23.40;;;;;;;;;;5003887;28;20483;-71
2024/03/01 08:37:25;;;;;;;93.37;23.70;;;;;;;;;;5000110;28;20503;-71
2024/03/01 08:39:54;;;;;;;88.77;25.60;;;;;;;;;;5007317;28;20938;-71
2024/03/01 08:42:21;;;;;;;86.00;23.17;;;;;;;;;;5000404;28;20502;-71
2024/03/01 08:44:53;;;;;;;88.80;24.50;;;;;;;;;;4993782;28;20456;-71
2024/03/01 08:47:34;;;;;;;89.13;23.40;;;;;;;;;;5003868;28;20466;-71
2024/03/01 08:50:15;;;;;;;86.33;23.67;;;;;;;;;;5003755;28;20480;-71
2024/03/01 08:52:42;;;;;;;85.33;23.30;;;;;;;;;;4995629;28;20453;-71
2024/03/01 08:55:36;;;;;;;90.47;24.63;;;;;;;;;;4997113;28;20492;-72
2024/03/01 08:58:04;;;;;;;87.13;23.60;;;;;;;;;;4979983;28;20455;-71
2024/03/01 09:00:37;;;;;;;84.63;23.43;;;;;;;;;;5002924;28;20448;-71
2024/03/01 09:03:09;;;;;;;85.63;23.93;;;;;;;;;;5003727;28;20539;-71
2024/03/01 09:05:38;;;;;;;90.53;25.10;;;;;;;;;;4995309;28;20502;-71
2024/03/01 09:08:06;;;;;;;89.13;23.43;;;;;;;;;;4995419;28;20949;-71
2024/03/01 09:10:33;;;;;;;85.60;22.60;;;;;;;;;;4995233;28;20456;-71
2024/03/01 09:13:01;;;;;;;88.17;24.30;;;;;;;;;;4995599;28;20458;-71
2024/03/01 09:15:31;;;;;;;87.07;23.40;;;;;;;;;;4987681;28;20485;-71
2024/03/01 09:17:59;;;;;;;84.47;23.20;;;;;;;;;;5003363;28;20452;-71
2024/03/01 09:20:32;;;;;;;89.17;24.30;;;;;;;;;;4995003;28;20448;-71
2024/03/01 09:22:59;;;;;;;88.27;23.47;;;;;;;;;;4995235;28;20945;-71
2024/03/01 09:25:50;;;;;;;90.47;23.17;;;;;;;;;;5014209;28;20450;-71
2024/03/01 09:28:19;;;;;;;89.97;23.80;;;;;;;;;;4999906;28;20459;-71
2024/03/01 09:30:46;;;;;;;93.87;24.07;;;;;;;;;;5014499;28;20464;-71
2024/03/01 09:33:17;;;;;;;83.80;21.53;;;;;;;;;;5014601;28;20448;-71
2024/03/01 09:35:44;;;;;;;94.47;23.67;;;;;;;;;;5014073;28;20487;-71
2024/03/01 09:38:13;;;;;;;93.90;23.87;;;;;;;;;;5014797;28;20463;-71
2024/03/01 09:40:57;;;;;;;87.13;23.93;;;;;;;;;;5014445;28;20456;-71
2024/03/01 09:43:27;;;;;;;85.63;23.40;;;;;;;;;;5014359;28;20476;-71
2024/03/01 09:45:56;;;;;;;89.90;23.77;;;;;;;;;;5014104;28;20463;-71
2024/03/01 09:48:41;;;;;;;88.70;22.20;;;;;;;;;;5014015;28;20457;-71
2024/03/01 09:51:18;;;;;;;94.60;23.10;;;;;;;;;;5014267;28;20478;-71
2024/03/01 09:53:53;;;;;;;86.20;21.63;;;;;;;;;;5014304;28;20486;-71
2024/03/01 09:56:26;;;;;;;91.37;23.50;;;;;;;;;;5002444;28;20477;-71
2024/03/01 09:58:57;;;;;;;87.67;24.27;;;;;;;;;;4994247;28;20464;-68
2024/03/01 10:01:28;;;;;;;91.43;24.67;;;;;;;;;;4994217;28;20450;-70
2024/03/01 10:04:01;;;;;;;87.40;23.20;;;;;;;;;;4994338;28;20559;-69
2024/03/01 10:06:48;;;;;;;81.50;21.90;;;;;;;;;;4994362;28;20478;-69
2024/03/01 10:09:21;;;;;;;84.03;23.30;;;;;;;;;;4989280;28;20945;-69
2024/03/01 10:11:58;;;;;;;90.30;23.73;;;;;;;;;;4994423;28;20536;-69
2024/03/01 10:14:31;;;;;;;83.27;22.97;;;;;;;;;;4993935;28;20485;-69
2024/03/01 10:17:01;;;;;;;83.07;23.80;;;;;;;;;;4994183;28;20480;-69
2024/03/01 10:19:39;;;;;;;86.60;22.53;;;;;;;;;;4993914;28;20449;-69
2024/03/01 10:22:11;;;;;;;83.67;21.97;;;;;;;;;;4994012;28;20464;-70
2024/03/01 10:24:46;;;;;;;85.70;21.73;;;;;;;;;;4993865;28;20445;-69
2024/03/01 10:27:17;;;;;;;80.43;19.70;;;;;;;;;;4994031;28;20461;-70
2024/03/01 10:29:52;;;;;;;84.33;22.07;;;;;;;;;;4993823;28;20536;-69
2024/03/01 10:32:24;;;;;;;85.47;20.67;;;;;;;;;;4993682;28;20465;-69
2024/03/01 10:34:59;;;;;;;82.73;20.77;;;;;;;;;;4993524;28;20498;-69
2024/03/01 10:37:31;;;;;;;78.97;19.03;;;;;;;;;;4993468;28;20483;-69
2024/03/01 10:40:03;;;;;;;72.17;15.27;;;;;;;;;;4993591;28;20855;-69
2024/03/01 10:42:30;;;;;;;79.03;16.20;;;;;;;;;;4993453;28;20844;-69
2024/03/01 10:45:03;;;;;;;71.17;15.10;;;;;;;;;;4993528;28;20449;-70
2024/03/01 10:47:30;;;;;;;75.23;15.40;;;;;;;;;;4993342;28;20608;-69
2024/03/01 10:50:16;;;;;;;74.83;15.00;;;;;;;;;;4993480;28;20453;-69
2024/03/01 10:52:47;;;;;;;72.13;13.87;;;;;;;;;;4993165;28;20941;-69
2024/03/01 10:55:19;;;;;;;70.43;14.00;;;;;;;;;;4993539;28;20493;-70
2024/03/01 10:57:51;;;;;;;70.00;13.30;;;;;;;;;;4993693;28;20453;-69
2024/03/01 11:00:20;;;;;;;74.70;15.63;;;;;;;;;;4993225;28;20827;-70
2024/03/01 11:02:49;;;;;;;74.27;15.07;;;;;;;;;;4993186;28;20998;-69
2024/03/01 11:05:22;;;;;;;77.43;14.50;;;;;;;;;;4992693;28;20465;-70
2024/03/01 11:07:57;;;;;;;72.40;14.13;;;;;;;;;;4992701;28;20460;-70
2024/03/01 11:10:27;;;;;;;73.90;12.83;;;;;;;;;;5011502;28;20992;-69
2024/03/01 11:12:54;;;;;;;73.73;15.27;;;;;;;;;;5012818;28;20502;-69
2024/03/01 11:15:22;;;;;;;70.50;13.30;;;;;;;;;;5012385;28;20489;-69
2024/03/01 11:17:50;;;;;;;73.50;14.03;;;;;;;;;;5013031;28;20770;-69
2024/03/01 11:20:21;;;;;;;71.67;12.77;;;;;;;;;;5014812;28;20480;-69
2024/03/01 11:22:48;;;;;;;71.47;13.63;;;;;;;;;;5015076;28;20814;-69
2024/03/01 11:25:19;;;;;;;68.00;12.57;;;;;;;;;;5013998;28;20934;-69
2024/03/01 11:27:49;;;;;;;70.27;11.90;;;;;;;;;;5014614;28;20968;-69
2024/03/01 11:30:20;;;;;;;69.47;12.13;;;;;;;;;;5013379;28;20457;-69
2024/03/01 11:32:50;;;;;;;66.40;11.13;;;;;;;;;;5012874;28;20456;-70
2024/03/01 11:35:23;;;;;;;72.70;12.20;;;;;;;;;;5012111;28;20492;-70
2024/03/01 11:37:57;;;;;;;68.00;11.80;;;;;;;;;;5012258;28;20456;-70
2024/03/01 11:40:26;;;;;;;71.00;12.27;;;;;;;;;;5011938;28;20451;-70
2024/03/01 11:43:00;;;;;;;68.83;11.50;;;;;;;;;;5012137;28;20458;-70
2024/03/01 11:45:32;;;;;;;68.60;11.53;;;;;;;;;;5011969;28;20446;-70
2024/03/01 11:48:06;;;;;;;66.87;11.17;;;;;;;;;;5012331;28;20450;-71
2024/03/01 11:50:39;;;;;;;66.37;11.43;;;;;;;;;;4984251;28;20607;-71
2024/03/01 11:53:33;;;;;;;68.27;11.10;;;;;;;;;;4992467;28;20446;-70
2024/03/01 11:56:11;;;;;;;64.50;9.33;;;;;;;;;;4957265;28;21053;-71
2024/03/01 11:58:45;;;;;;;69.43;10.07;;;;;;;;;;4992273;28;20897;-70
2024/03/01 12:01:19;;;;;;;65.37;10.57;;;;;;;;;;4992001;28;20441;-70
2024/03/01 12:04:04;;;;;;;65.70;10.10;;;;;;;;;;4992034;28;20447;-70
2024/03/01 12:06:40;;;;;;;68.80;10.20;;;;;;;;;;4991875;28;20462;-70
2024/03/01 12:09:13;;;;;;;64.70;10.17;;;;;;;;;;4992070;28;20457;-70
2024/03/01 12:11:46;;;;;;;65.07;10.00;;;;;;;;;;4992199;28;20455;-70
2024/03/01 12:14:17;;;;;;;64.77;9.97;;;;;;;;;;4991729;28;20467;-70
2024/03/01 12:16:50;;;;;;;65.67;9.20;;;;;;;;;;4992400;28;20498;-70
2024/03/01 12:19:18;;;;;;;66.20;9.90;;;;;;;;;;5002636;28;20453;-71
2024/03/01 12:21:49;;;;;;;65.17;9.07;;;;;;;;;;5015768;28;20456;-71
2024/03/01 12:24:17;;;;;;;63.70;8.10;;;;;;;;;;5015498;28;20473;-70
2024/03/01 12:27:04;;;;;;;63.60;8.97;;;;;;;;;;5015532;28;20476;-70
2024/03/01 12:29:37;;;;;;;67.23;8.83;;;;;;;;;;4999497;28;20467;-70
2024/03/01 12:32:11;;;;;;;63.77;9.40;;;;;;;;;;5015689;28;20484;-70
2024/03/01 12:34:41;;;;;;;65.77;9.00;;;;;;;;;;5015428;28;20942;-70
2024/03/01 12:37:15;;;;;;;63.57;9.30;;;;;;;;;;5015361;28;20557;-71
2024/03/01 12:39:44;;;;;;;65.83;9.40;;;;;;;;;;5015764;28;20446;-71
2024/03/01 12:42:19;;;;;;;64.60;9.17;;;;;;;;;;5015601;28;20442;-71
2024/03/01 12:44:57;;;;;;;63.80;8.33;;;;;;;;;;5002516;28;20497;-70
2024/03/01 12:47:41;;;;;;;62.80;8.90;;;;;;;;;;4995480;28;20478;-71
2024/03/01 12:50:23;;;;;;;63.20;8.47;;;;;;;;;;4995554;28;20634;-70
2024/03/01 12:52:59;;;;;;;63.77;9.07;;;;;;;;;;4995396;28;20467;-71
2024/03/01 12:55:29;;;;;;;62.30;7.90;;;;;;;;;;4995388;28;20494;-71
2024/03/01 12:58:04;;;;;;;62.60;8.23;;;;;;;;;;4995742;28;20444;-70
2024/03/01 13:00:45;;;;;;;63.80;8.30;;;;;;;;;;5006438;28;20548;-70
2024/03/01 13:03:21;;;;;;;64.43;8.03;;;;;;;;;;4998869;28;20832;-70
2024/03/01 13:05:49;;;;;;;61.87;7.80;;;;;;;;;;5008416;28;20465;-70
2024/03/01 13:08:22;;;;;;;63.50;8.50;;;;;;;;;;5014905;28;20446;-70
2024/03/01 13:10:49;;;;;;;60.27;7.00;;;;;;;;;;5002217;28;20474;-70
2024/03/01 13:13:21;;;;;;;64.17;8.90;;;;;;;;;;4995255;28;20447;-70
2024/03/01 13:15:55;;;;;;;65.23;8.00;;;;;;;;;;4995037;28;20494;-70
2024/03/01 13:18:25;;;;;;;63.97;8.90;;;;;;;;;;4995310;28;20454;-70
2024/03/01 13:20:57;;;;;;;63.10;8.53;;;;;;;;;;4994976;28;20452;-70
2024/03/01 13:23:28;;;;;;;67.90;8.40;;;;;;;;;;4995270;28;20452;-70
2024/03/01 13:26:07;;;;;;;68.70;9.00;;;;;;;;;;4995138;28;20481;-70
2024/03/01 13:28:36;;;;;;;64.00;10.37;;;;;;;;;;4994970;28;20563;-70
2024/03/01 13:31:10;;;;;;;66.90;9.80;;;;;;;;;;4994806;28;20446;-71
2024/03/01 13:33:39;;;;;;;69.60;12.07;;;;;;;;;;4994939;28;20953;-71
2024/03/01 13:36:11;;;;;;;65.33;9.63;;;;;;;;;;5009662;28;20492;-70
2024/03/01 13:38:44;;;;;;;65.00;10.03;;;;;;;;;;5003034;28;20947;-70
2024/03/01 13:41:18;;;;;;;68.20;12.40;;;;;;;;;;5002644;28;20483;-70
2024/03/01 13:43:49;;;;;;;67.50;12.50;;;;;;;;;;5014150;28;20978;-70
2024/03/01 13:46:23;;;;;;;67.67;11.27;;;;;;;;;;5006001;28;20469;-70
2024/03/01 13:48:50;;;;;;;69.77;12.07;;;;;;;;;;4994926;28;20453;-70
2024/03/01 13:51:18;;;;;;;66.27;10.70;;;;;;;;;;4994622;28;20503;-70
2024/03/01 13:53:46;;;;;;;72.30;11.97;;;;;;;;;;4998727;28;20545;-70
2024/03/01 13:56:13;;;;;;;74.23;13.57;;;;;;;;;;5013759;28;20510;-70
2024/03/01 13:58:41;;;;;;;69.43;11.90;;;;;;;;;;4986802;28;20460;-70
2024/03/01 14:01:08;;;;;;;71.88;12.77;;;;;;;;;;4993722;28;20436;-68
2024/03/01 14:03:38;;;;;;;69.27;11.90;;;;;;;;;;5005176;28;20217;-69
2024/03/01 14:06:06;;;;;;;70.97;12.17;;;;;;;;;;5013655;28;20478;-69
2024/03/01 14:08:33;;;;;;;69.83;11.90;;;;;;;;;;5003211;28;21029;-69
2024/03/01 14:11:01;;;;;;;72.30;12.50;;;;;;;;;;4994286;28;20456;-69
2024/03/01 14:13:28;;;;;;;69.37;12.30;;;;;;;;;;5002334;28;20451;-69
2024/03/01 14:15:57;;;;;;;67.80;12.70;;;;;;;;;;4993868;28;21083;-69
2024/03/01 14:18:24;;;;;;;70.03;12.77;;;;;;;;;;4993920;28;20910;-71
2024/03/01 14:20:52;;;;;;;69.73;12.57;;;;;;;;;;5006919;28;20452;-68
2024/03/01 14:23:20;;;;;;;68.10;12.00;;;;;;;;;;5012964;28;20459;-68
2024/03/01 14:25:47;;;;;;;67.37;11.83;;;;;;;;;;4993793;28;20478;-70
2024/03/01 14:28:15;;;;;;;68.07;12.67;;;;;;;;;;4993865;28;20951;-68
2024/03/01 14:30:43;;;;;;;69.63;13.50;;;;;;;;;;4993866;28;20455;-68
2024/03/01 14:33:10;;;;;;;71.47;14.00;;;;;;;;;;5009227;28;20482;-68